WZZ3DP LKTB-LZKZ
Flight info
| Callsign | WZZ3DP |
|---|---|
| Flight time | N/A |
| Altitude | 9000 |
| Route | UPLAV P27 MAKAL/N0393F230 P27 PPD/N0340F130 R232 MARKA |
| Aircraft | A21N/M-SDE2E3FGHIRWXY/LB1 |
Departure
| Time | 2026-04-29 17:30 |
|---|---|
| Airport | Brno-Tuřany Airport (LKTB) |
Arrival
| Time | N/A |
|---|---|
| Airport | Košice International Airport (LZKZ) |
| Time | Latitude | Longitude | Altitude | Speed | Heading |
|---|---|---|---|---|---|
| 2026-04-29 17:14 | 49.15373 | 16.69082 | 783 ft | 0 kts | 7° |
| 2026-04-29 17:26 | 49.15376 | 16.69080 | 783 ft | 1 kts | 333° |
| 2026-04-29 17:26 | 49.15368 | 16.69035 | 783 ft | 9 kts | 246° |
| 2026-04-29 17:27 | 49.15362 | 16.68928 | 782 ft | 10 kts | 277° |
| 2026-04-29 17:27 | 49.15371 | 16.68811 | 782 ft | 11 kts | 278° |
| 2026-04-29 17:27 | 49.15384 | 16.68682 | 782 ft | 12 kts | 279° |
| 2026-04-29 17:27 | 49.15400 | 16.68506 | 781 ft | 14 kts | 278° |
| 2026-04-29 17:28 | 49.15418 | 16.68284 | 778 ft | 16 kts | 277° |
| 2026-04-29 17:28 | 49.15434 | 16.68095 | 773 ft | 18 kts | 278° |
| 2026-04-29 17:28 | 49.15453 | 16.67886 | 769 ft | 20 kts | 277° |
| 2026-04-29 17:28 | 49.15451 | 16.67669 | 765 ft | 20 kts | 225° |
| 2026-04-29 17:29 | 49.15313 | 16.67630 | 764 ft | 19 kts | 154° |
| 2026-04-29 17:29 | 49.15269 | 16.67813 | 766 ft | 22 kts | 96° |
| 2026-04-29 17:29 | 49.15219 | 16.68409 | 776 ft | 90 kts | 99° |
| 2026-04-29 17:29 | 49.15150 | 16.69184 | 771 ft | 131 kts | 97° |
| 2026-04-29 17:30 | 49.14949 | 16.71378 | 1090 ft | 167 kts | 94° |
| 2026-04-29 17:30 | 49.14793 | 16.73087 | 1820 ft | 164 kts | 93° |
| 2026-04-29 17:30 | 49.14646 | 16.74739 | 2588 ft | 159 kts | 89° |
| 2026-04-29 17:30 | 49.14506 | 16.76466 | 3087 ft | 171 kts | 90° |
| 2026-04-29 17:31 | 49.14359 | 16.78328 | 3422 ft | 188 kts | 90° |
| 2026-04-29 17:31 | 49.14188 | 16.80404 | 3763 ft | 206 kts | 91° |
| 2026-04-29 17:31 | 49.13995 | 16.82669 | 4134 ft | 223 kts | 91° |
| 2026-04-29 17:31 | 49.13785 | 16.85093 | 4521 ft | 240 kts | 92° |
| 2026-04-29 17:32 | 49.13555 | 16.87671 | 5097 ft | 250 kts | 93° |
| 2026-04-29 17:32 | 49.13320 | 16.90284 | 5817 ft | 254 kts | 93° |
| 2026-04-29 17:32 | 49.13077 | 16.92964 | 6550 ft | 258 kts | 93° |
| 2026-04-29 17:32 | 49.12833 | 16.95684 | 7245 ft | 263 kts | 93° |
| 2026-04-29 17:33 | 49.12587 | 16.98449 | 7913 ft | 269 kts | 92° |
| 2026-04-29 17:33 | 49.12665 | 17.01287 | 8555 ft | 267 kts | 71° |
| 2026-04-29 17:33 | 49.13377 | 17.03854 | 9204 ft | 267 kts | 56° |
| 2026-04-29 17:33 | 49.14322 | 17.06289 | 9865 ft | 273 kts | 54° |
| 2026-04-29 17:34 | 49.15314 | 17.08788 | 10533 ft | 278 kts | 54° |
| 2026-04-29 17:34 | 49.16336 | 17.11366 | 10967 ft | 291 kts | 54° |
| 2026-04-29 17:34 | 49.17407 | 17.14088 | 11332 ft | 308 kts | 54° |
| 2026-04-29 17:34 | 49.18524 | 17.16953 | 11634 ft | 324 kts | 54° |
| 2026-04-29 17:35 | 49.20511 | 17.22086 | 12110 ft | 350 kts | 55° |
| 2026-04-29 17:35 | 49.22198 | 17.26466 | 12520 ft | 368 kts | 55° |
| 2026-04-29 17:35 | 49.23493 | 17.29842 | 13040 ft | 373 kts | 55° |
| 2026-04-29 17:36 | 49.24801 | 17.33262 | 13668 ft | 376 kts | 55° |
| 2026-04-29 17:36 | 49.26116 | 17.36702 | 14245 ft | 379 kts | 54° |
| 2026-04-29 17:36 | 49.27451 | 17.40194 | 14814 ft | 381 kts | 54° |
| 2026-04-29 17:36 | 49.28791 | 17.43706 | 15369 ft | 384 kts | 54° |
| 2026-04-29 17:37 | 49.30148 | 17.47256 | 15916 ft | 387 kts | 54° |
| 2026-04-29 17:37 | 49.31299 | 17.50981 | 16400 ft | 398 kts | 66° |
| 2026-04-29 17:37 | 49.31808 | 17.55206 | 16871 ft | 412 kts | 81° |
| 2026-04-29 17:37 | 49.31596 | 17.59583 | 17320 ft | 423 kts | 94° |
| 2026-04-29 17:38 | 49.31064 | 17.64050 | 17812 ft | 427 kts | 95° |
| 2026-04-29 17:38 | 49.30499 | 17.68489 | 18240 ft | 430 kts | 96° |
| 2026-04-29 17:38 | 49.29929 | 17.73006 | 18680 ft | 433 kts | 96° |
| 2026-04-29 17:38 | 49.29366 | 17.77568 | 19049 ft | 438 kts | 96° |
| 2026-04-29 17:39 | 49.28812 | 17.82102 | 19513 ft | 439 kts | 96° |
| 2026-04-29 17:39 | 49.28249 | 17.86714 | 20071 ft | 438 kts | 96° |
| 2026-04-29 17:39 | 49.27700 | 17.91243 | 20543 ft | 439 kts | 96° |
| 2026-04-29 17:39 | 49.27139 | 17.95864 | 21037 ft | 439 kts | 96° |
| 2026-04-29 17:40 | 49.26582 | 18.00454 | 21411 ft | 443 kts | 96° |